createdAt,value
2018-12-10T00:00:01.823Z,6.65
2018-12-10T00:03:13.559Z,6.00
2018-12-10T00:06:20.343Z,6.53
2018-12-10T00:09:25.105Z,6.71
2018-12-10T00:12:29.818Z,6.56
2018-12-10T00:15:34.600Z,6.58
2018-12-10T00:18:39.365Z,6.64
2018-12-10T00:21:44.115Z,6.59
2018-12-10T00:24:48.844Z,6.61
2018-12-10T00:27:53.581Z,6.78
2018-12-10T00:30:58.335Z,6.68
2018-12-10T00:34:03.089Z,6.63
2018-12-10T00:37:07.827Z,6.64
2018-12-10T00:40:12.555Z,6.57
2018-12-10T00:43:17.356Z,6.43
2018-12-10T00:46:22.659Z,6.49
2018-12-10T00:49:27.521Z,6.52
2018-12-10T00:52:32.274Z,6.54
2018-12-10T00:55:37.023Z,6.42
2018-12-10T00:58:41.753Z,6.40
2018-12-10T01:01:46.459Z,6.27
2018-12-10T01:04:51.230Z,6.12
2018-12-10T01:07:55.942Z,6.04
2018-12-10T01:11:00.683Z,6.00
2018-12-10T01:14:05.421Z,6.04
2018-12-10T01:17:10.194Z,5.99
2018-12-10T01:20:14.932Z,6.20
2018-12-10T01:23:19.662Z,6.22
2018-12-10T01:26:24.388Z,6.10
2018-12-10T01:29:29.148Z,5.86
2018-12-10T01:32:33.874Z,5.69
2018-12-10T01:35:38.590Z,5.99
2018-12-10T01:38:43.375Z,5.98
2018-12-10T01:41:48.117Z,5.86
2018-12-10T01:44:52.845Z,6.02
2018-12-10T01:47:57.625Z,5.95
2018-12-10T01:51:02.366Z,5.93
2018-12-10T01:54:07.081Z,5.88
2018-12-10T01:57:11.822Z,6.00
2018-12-10T02:00:16.910Z,5.93
2018-12-10T02:03:21.677Z,6.13
2018-12-10T02:06:26.429Z,6.09
2018-12-10T02:09:31.224Z,5.87
2018-12-10T02:12:35.937Z,5.81
2018-12-10T02:15:40.695Z,5.79
2018-12-10T02:18:45.534Z,5.90
2018-12-10T02:21:50.344Z,5.86
2018-12-10T02:24:55.072Z,5.89
2018-12-10T02:27:59.872Z,5.75
2018-12-10T02:31:04.661Z,5.70
2018-12-10T02:34:09.393Z,5.27
2018-12-10T02:37:14.115Z,5.58
2018-12-10T02:40:18.844Z,5.54
2018-12-10T02:43:23.605Z,5.64
2018-12-10T02:46:28.395Z,5.56
2018-12-10T02:49:33.132Z,5.47
2018-12-10T02:52:37.835Z,5.40
2018-12-10T02:55:42.554Z,5.38
2018-12-10T02:58:47.340Z,5.26
2018-12-10T03:01:52.077Z,5.07
2018-12-10T03:04:56.826Z,5.37
2018-12-10T03:08:01.564Z,5.42
2018-12-10T03:11:06.321Z,5.51
2018-12-10T03:14:11.057Z,5.26
2018-12-10T03:17:22.362Z,5.32
2018-12-10T03:20:27.153Z,5.49
2018-12-10T03:23:31.862Z,5.33
2018-12-10T03:26:36.609Z,5.34
2018-12-10T03:29:41.331Z,5.29
2018-12-10T03:32:46.093Z,4.73
2018-12-10T03:35:50.806Z,4.99
2018-12-10T03:38:55.667Z,4.80
2018-12-10T03:42:00.393Z,5.03
2018-12-10T03:45:05.488Z,5.02
2018-12-10T03:48:10.232Z,5.09
2018-12-10T03:51:14.978Z,5.02
2018-12-10T03:54:19.713Z,4.75
2018-12-10T03:57:24.499Z,4.26
2018-12-10T04:00:29.247Z,4.40
2018-12-10T04:03:34.026Z,4.45
2018-12-10T04:06:38.799Z,4.51
2018-12-10T04:09:43.556Z,4.63
2018-12-10T04:12:48.286Z,4.49
2018-12-10T04:15:53.018Z,4.71
2018-12-10T04:18:57.765Z,4.67
2018-12-10T04:22:02.484Z,4.23
2018-12-10T04:25:07.293Z,4.52
2018-12-10T04:28:11.984Z,4.47
2018-12-10T04:31:16.733Z,3.67
2018-12-10T04:34:21.487Z,3.83
2018-12-10T04:37:26.273Z,4.17
2018-12-10T04:40:30.981Z,4.42
2018-12-10T04:43:35.708Z,4.21
2018-12-10T04:46:40.476Z,4.49
2018-12-10T04:49:45.210Z,4.35
2018-12-10T04:52:49.953Z,4.57
2018-12-10T04:55:54.679Z,4.37
2018-12-10T04:58:59.385Z,4.41
2018-12-10T05:02:04.167Z,4.65
2018-12-10T05:05:08.947Z,4.56
2018-12-10T05:08:13.663Z,4.26
2018-12-10T05:11:18.409Z,4.22
2018-12-10T05:14:23.144Z,4.43
2018-12-10T05:17:28.081Z,4.70
2018-12-10T05:20:32.905Z,4.45
2018-12-10T05:23:37.646Z,4.63
2018-12-10T05:26:42.378Z,4.80
2018-12-10T05:29:47.099Z,4.34
2018-12-10T05:32:51.821Z,4.69
2018-12-10T05:35:56.549Z,4.82
2018-12-10T05:39:01.325Z,4.75
2018-12-10T05:42:08.137Z,4.99
2018-12-10T05:45:12.874Z,4.97
2018-12-10T05:48:20.338Z,5.20
2018-12-10T05:51:24.630Z,4.84
2018-12-10T05:54:28.931Z,4.84
2018-12-10T05:57:33.262Z,5.02
2018-12-10T06:00:37.532Z,5.41
2018-12-10T06:03:41.842Z,4.13
2018-12-10T06:06:46.144Z,3.99
2018-12-10T06:09:51.240Z,3.66
2018-12-10T06:12:55.690Z,3.68
2018-12-10T06:15:59.973Z,4.54
2018-12-10T06:19:04.558Z,3.78
2018-12-10T06:22:08.867Z,4.12
2018-12-10T06:25:13.141Z,4.22
2018-12-10T06:28:17.405Z,4.62
2018-12-10T06:31:24.687Z,4.62
2018-12-10T06:34:28.968Z,4.39
2018-12-10T06:37:37.634Z,4.28
2018-12-10T06:40:39.579Z,4.87
2018-12-10T06:43:43.881Z,4.59
2018-12-10T06:46:48.171Z,4.55
2018-12-10T06:49:52.430Z,4.03
2018-12-10T06:52:56.830Z,3.53
2018-12-10T06:56:01.111Z,4.16
2018-12-10T06:59:05.452Z,3.87
2018-12-10T07:02:09.795Z,4.27
2018-12-10T07:05:14.237Z,4.42
2018-12-10T07:08:18.524Z,4.54
2018-12-10T07:11:22.864Z,4.70
2018-12-10T07:14:27.170Z,4.81
2018-12-10T07:17:31.456Z,5.08
2018-12-10T07:20:35.713Z,4.55
2018-12-10T07:23:40.012Z,5.16
2018-12-10T07:26:44.293Z,5.03
2018-12-10T07:29:48.643Z,5.46
2018-12-10T07:32:52.978Z,5.47
2018-12-10T07:35:57.261Z,5.33
2018-12-10T07:39:01.538Z,5.60
2018-12-10T07:42:07.812Z,5.46
2018-12-10T07:45:12.137Z,5.73
2018-12-10T07:48:16.472Z,5.96
2018-12-10T07:51:20.742Z,5.70
2018-12-10T07:54:25.022Z,4.73
2018-12-10T07:57:29.306Z,4.95
2018-12-10T08:00:33.686Z,5.40
2018-12-10T08:03:37.959Z,5.57
2018-12-10T08:06:42.254Z,5.93
2018-12-10T08:09:46.572Z,6.25
2018-12-10T08:12:50.924Z,6.51
2018-12-10T08:15:55.215Z,6.68
2018-12-10T08:18:59.490Z,6.79
2018-12-10T08:22:03.798Z,6.78
2018-12-10T08:25:08.394Z,6.83
2018-12-10T08:28:12.698Z,6.83
2018-12-10T08:31:17.024Z,6.68
2018-12-10T08:34:21.293Z,6.49
2018-12-10T08:37:25.571Z,6.68
2018-12-10T08:40:29.861Z,6.85
2018-12-10T08:43:34.578Z,6.75
2018-12-10T08:46:39.380Z,6.86
2018-12-10T08:49:44.157Z,6.49
2018-12-10T08:52:48.923Z,6.53
2018-12-10T08:55:53.872Z,6.75
2018-12-10T08:58:58.753Z,6.79
2018-12-10T09:02:03.602Z,6.80
2018-12-10T09:05:08.443Z,6.60
2018-12-10T09:08:13.192Z,6.60
2018-12-10T09:11:17.972Z,6.67
2018-12-10T09:14:22.722Z,6.84
2018-12-10T09:17:27.635Z,6.80
2018-12-10T09:20:32.526Z,6.74
2018-12-10T09:23:37.296Z,6.51
2018-12-10T09:26:42.035Z,6.64
2018-12-10T09:29:47.203Z,6.65
2018-12-10T09:32:51.954Z,6.84
2018-12-10T09:35:56.689Z,6.77
2018-12-10T09:39:01.533Z,6.79
2018-12-10T09:42:08.359Z,6.87
2018-12-10T09:45:13.227Z,6.81
2018-12-10T09:48:18.081Z,6.61
2018-12-10T09:51:22.815Z,7.00
2018-12-10T09:54:27.540Z,6.77
2018-12-10T09:57:32.326Z,6.99
2018-12-10T10:00:37.160Z,7.28
2018-12-10T10:03:41.948Z,7.02
2018-12-10T10:06:46.678Z,7.33
2018-12-10T10:09:51.474Z,7.20
2018-12-10T10:12:56.194Z,7.57
2018-12-10T10:16:00.980Z,7.43
2018-12-10T10:19:05.740Z,7.66
2018-12-10T10:22:10.545Z,7.62
2018-12-10T10:25:15.365Z,7.67
2018-12-10T10:28:20.095Z,7.43
2018-12-10T10:31:24.843Z,7.55
2018-12-10T10:34:29.568Z,7.71
2018-12-10T10:37:34.313Z,7.87
2018-12-10T10:40:39.049Z,7.96
2018-12-10T10:43:43.784Z,7.99
2018-12-10T10:46:48.557Z,7.71
2018-12-10T10:49:53.290Z,7.77
2018-12-10T10:52:58.026Z,7.83
2018-12-10T10:56:02.909Z,7.81
2018-12-10T10:59:07.619Z,8.01
2018-12-10T11:02:21.495Z,7.99
2018-12-10T11:05:26.268Z,7.90
2018-12-10T11:08:31.064Z,7.89
2018-12-10T11:11:35.848Z,7.72
2018-12-10T11:14:40.614Z,7.89
2018-12-10T11:17:45.355Z,7.91
2018-12-10T11:20:50.085Z,8.02
2018-12-10T11:23:54.851Z,8.09
2018-12-10T11:26:59.583Z,8.00
2018-12-10T11:30:04.520Z,7.93
2018-12-10T11:33:09.285Z,7.84
2018-12-10T11:36:14.220Z,7.85
2018-12-10T11:39:18.978Z,7.89
2018-12-10T11:42:23.693Z,7.80
2018-12-10T11:45:28.465Z,7.77
2018-12-10T11:48:33.249Z,7.74
2018-12-10T11:51:38.173Z,7.72
2018-12-10T11:54:43.358Z,7.66
2018-12-10T11:57:48.141Z,7.79
2018-12-10T12:00:52.976Z,7.57
2018-12-10T12:03:58.029Z,7.68
2018-12-10T12:07:04.844Z,7.73
2018-12-10T12:10:10.088Z,7.61
2018-12-10T12:13:14.802Z,7.57
2018-12-10T12:16:19.590Z,7.62
2018-12-10T12:19:24.286Z,7.60
2018-12-10T12:22:29.027Z,7.60
2018-12-10T12:25:33.751Z,7.60
2018-12-10T12:28:38.489Z,7.66
2018-12-10T12:31:43.197Z,7.52
2018-12-10T12:34:47.988Z,7.56
2018-12-10T12:37:52.707Z,7.46
2018-12-10T12:40:57.443Z,7.46
2018-12-10T12:44:02.187Z,7.36
2018-12-10T12:47:06.912Z,7.45
2018-12-10T12:50:12.639Z,7.47
2018-12-10T12:53:19.400Z,7.50
2018-12-10T12:56:24.253Z,7.59
2018-12-10T12:59:29.046Z,7.66
2018-12-10T13:02:33.786Z,7.62
2018-12-10T13:05:38.498Z,7.77
2018-12-10T13:08:43.237Z,7.69
2018-12-10T13:11:47.978Z,7.69
2018-12-10T13:14:52.687Z,7.64
2018-12-10T13:17:57.389Z,7.92
2018-12-10T13:21:02.173Z,7.91
2018-12-10T13:24:06.926Z,7.70
2018-12-10T13:27:11.826Z,7.88
2018-12-10T13:30:16.571Z,8.05
2018-12-10T13:33:21.404Z,8.17
2018-12-10T13:36:26.104Z,7.88
2018-12-10T13:39:30.843Z,7.84
2018-12-10T13:42:35.618Z,7.88
2018-12-10T13:45:40.483Z,7.97
2018-12-10T13:48:45.422Z,7.85
2018-12-10T13:51:50.140Z,8.04
2018-12-10T13:54:54.846Z,8.01
2018-12-10T13:57:59.574Z,7.92
2018-12-10T14:01:04.436Z,7.91
2018-12-10T14:04:14.037Z,7.97
2018-12-10T14:07:18.752Z,8.03
2018-12-10T14:10:23.527Z,8.02
2018-12-10T14:13:29.450Z,7.84
2018-12-10T14:16:34.230Z,7.98
2018-12-10T14:19:38.980Z,7.79
2018-12-10T14:22:43.739Z,7.76
2018-12-10T14:25:48.481Z,7.82
2018-12-10T14:28:53.765Z,7.96
2018-12-10T14:31:58.466Z,7.73
2018-12-10T14:35:03.238Z,7.95
2018-12-10T14:38:08.408Z,7.76
2018-12-10T14:41:13.128Z,7.81
2018-12-10T14:44:17.866Z,7.81
2018-12-10T14:47:22.609Z,7.71
2018-12-10T14:50:27.330Z,7.73
2018-12-10T14:53:32.033Z,7.74
2018-12-10T14:56:36.764Z,7.86
2018-12-10T14:59:42.398Z,7.74
2018-12-10T15:02:47.130Z,7.75
2018-12-10T15:05:51.857Z,7.85
2018-12-10T15:08:56.562Z,7.76
2018-12-10T15:12:01.335Z,7.81
2018-12-10T15:15:08.822Z,7.92
2018-12-10T15:18:13.590Z,7.97
2018-12-10T15:21:18.318Z,7.93
2018-12-10T15:24:23.089Z,7.81
2018-12-10T15:27:27.843Z,7.99
2018-12-10T15:30:32.570Z,7.98
2018-12-10T15:33:37.336Z,8.18
2018-12-10T15:36:42.092Z,8.08
2018-12-10T15:39:46.848Z,8.16
2018-12-10T15:42:51.586Z,8.26
2018-12-10T15:45:56.306Z,8.27
2018-12-10T15:49:01.026Z,8.05
2018-12-10T15:52:05.937Z,8.08
2018-12-10T15:55:10.784Z,8.25
2018-12-10T15:58:15.547Z,8.22
2018-12-10T16:01:20.295Z,8.05
2018-12-10T16:04:25.032Z,8.08
2018-12-10T16:07:29.759Z,8.17
2018-12-10T16:10:34.501Z,8.28
2018-12-10T16:13:39.328Z,8.37
2018-12-10T16:16:44.073Z,8.39
2018-12-10T16:19:48.816Z,8.31
2018-12-10T16:22:53.587Z,8.30
2018-12-10T16:25:58.548Z,8.36
2018-12-10T16:29:03.310Z,8.16
2018-12-10T16:32:08.093Z,8.35
2018-12-10T16:35:12.918Z,8.52
2018-12-10T16:38:17.755Z,8.42
2018-12-10T16:41:22.518Z,8.29
2018-12-10T16:44:27.303Z,8.22
2018-12-10T16:47:32.105Z,8.30
2018-12-10T16:50:36.884Z,8.44
2018-12-10T16:53:41.610Z,8.55
2018-12-10T16:56:47.291Z,8.35
2018-12-10T16:59:52.630Z,8.44
2018-12-10T17:02:57.383Z,8.32
2018-12-10T17:06:02.334Z,8.40
2018-12-10T17:09:11.757Z,8.26
2018-12-10T17:12:16.606Z,8.37
2018-12-10T17:15:21.520Z,8.27
2018-12-10T17:18:26.509Z,8.37
2018-12-10T17:21:31.244Z,8.49
2018-12-10T17:24:36.019Z,8.49
2018-12-10T17:27:40.778Z,8.44
2018-12-10T17:30:46.519Z,8.49
2018-12-10T17:33:51.310Z,8.54
2018-12-10T17:36:56.154Z,8.53
2018-12-10T17:40:00.934Z,8.50
2018-12-10T17:43:07.257Z,8.64
2018-12-10T17:46:12.033Z,8.41
2018-12-10T17:49:16.948Z,8.53
2018-12-10T17:52:21.708Z,8.44
2018-12-10T17:55:26.494Z,8.40
2018-12-10T17:58:31.374Z,8.49
2018-12-10T18:01:37.328Z,8.34
2018-12-10T18:04:42.093Z,8.32
2018-12-10T18:07:47.108Z,8.36
2018-12-10T18:10:51.942Z,8.33
2018-12-10T18:13:56.767Z,8.36
2018-12-10T18:17:01.486Z,8.31
2018-12-10T18:20:08.689Z,8.32
2018-12-10T18:23:13.434Z,8.29
2018-12-10T18:26:18.208Z,8.18
2018-12-10T18:29:22.937Z,8.21
2018-12-10T18:32:27.684Z,8.34
2018-12-10T18:35:32.485Z,8.28
2018-12-10T18:38:37.314Z,8.41
2018-12-10T18:41:42.044Z,8.42
2018-12-10T18:44:46.853Z,8.30
2018-12-10T18:47:51.596Z,8.55
2018-12-10T18:50:56.367Z,8.49
2018-12-10T18:54:02.246Z,8.59
2018-12-10T18:57:07.156Z,8.37
2018-12-10T19:00:13.997Z,8.58
2018-12-10T19:03:18.728Z,8.36
2018-12-10T19:06:23.598Z,8.34
2018-12-10T19:09:28.541Z,8.33
2018-12-10T19:12:33.628Z,8.39
2018-12-10T19:15:38.380Z,8.49
2018-12-10T19:18:43.222Z,8.37
2018-12-10T19:21:47.958Z,8.39
2018-12-10T19:24:52.850Z,8.50
2018-12-10T19:27:57.613Z,8.53
2018-12-10T19:31:02.363Z,8.54
2018-12-10T19:34:07.100Z,8.41
2018-12-10T19:37:11.940Z,8.32
2018-12-10T19:40:16.626Z,8.54
2018-12-10T19:43:21.697Z,8.42
2018-12-10T19:46:26.465Z,8.30
2018-12-10T19:49:31.257Z,8.31
2018-12-10T19:52:36.071Z,8.21
2018-12-10T19:55:40.998Z,8.42
2018-12-10T19:58:45.830Z,8.37
2018-12-10T20:01:50.589Z,8.31
2018-12-10T20:04:55.420Z,8.42
2018-12-10T20:08:00.207Z,8.36
2018-12-10T20:11:05.142Z,8.34
2018-12-10T20:14:09.907Z,8.13
2018-12-10T20:17:14.621Z,8.19
2018-12-10T20:20:19.373Z,8.34
2018-12-10T20:23:24.245Z,8.28
2018-12-10T20:26:29.080Z,8.31
2018-12-10T20:29:33.942Z,8.38
2018-12-10T20:32:39.896Z,8.37
2018-12-10T20:35:44.762Z,8.22
2018-12-10T20:38:49.591Z,8.13
2018-12-10T20:41:54.380Z,8.28
2018-12-10T20:44:59.094Z,8.24
2018-12-10T20:48:03.973Z,8.07
2018-12-10T20:51:08.733Z,8.03
2018-12-10T20:54:13.469Z,8.14
2018-12-10T20:57:18.215Z,8.10
2018-12-10T21:00:22.977Z,8.00
2018-12-10T21:03:27.780Z,8.19
2018-12-10T21:06:37.249Z,8.05
2018-12-10T21:09:42.031Z,8.06
2018-12-10T21:12:47.255Z,8.06
2018-12-10T21:15:52.078Z,8.13
2018-12-10T21:18:56.909Z,8.00
2018-12-10T21:22:01.730Z,7.91
2018-12-10T21:25:06.829Z,7.88
2018-12-10T21:28:11.589Z,7.90
2018-12-10T21:31:16.508Z,7.69
2018-12-10T21:34:21.265Z,7.63
2018-12-10T21:37:26.032Z,7.77
2018-12-10T21:40:30.779Z,7.86
2018-12-10T21:43:35.522Z,7.67
2018-12-10T21:46:40.402Z,7.44
2018-12-10T21:49:45.242Z,7.63
2018-12-10T21:52:49.981Z,7.48
2018-12-10T21:55:54.816Z,7.36
2018-12-10T21:58:59.594Z,7.49
2018-12-10T22:02:04.382Z,7.53
2018-12-10T22:05:09.274Z,7.73
2018-12-10T22:08:13.980Z,7.44
2018-12-10T22:11:18.701Z,7.58
2018-12-10T22:14:23.497Z,7.43
2018-12-10T22:17:28.209Z,7.39
2018-12-10T22:20:32.905Z,7.51
2018-12-10T22:23:37.694Z,7.44
2018-12-10T22:26:42.434Z,7.57
2018-12-10T22:29:47.183Z,7.53
2018-12-10T22:32:51.911Z,7.47
2018-12-10T22:35:56.645Z,7.65
2018-12-10T22:39:01.409Z,7.32
2018-12-10T22:42:08.202Z,7.37
2018-12-10T22:45:12.928Z,7.48
2018-12-10T22:48:17.656Z,7.50
2018-12-10T22:51:22.431Z,7.49
2018-12-10T22:54:27.189Z,7.41
2018-12-10T22:57:31.903Z,7.45
2018-12-10T23:00:45.501Z,7.48
2018-12-10T23:03:51.906Z,7.24
2018-12-10T23:06:56.675Z,7.44
2018-12-10T23:10:01.418Z,7.45
2018-12-10T23:13:06.386Z,7.45
2018-12-10T23:16:11.143Z,7.44
2018-12-10T23:19:15.923Z,7.25
2018-12-10T23:22:20.615Z,7.26
2018-12-10T23:25:25.334Z,7.24
2018-12-10T23:28:30.108Z,7.30
2018-12-10T23:31:34.876Z,7.15
2018-12-10T23:34:39.659Z,7.32
2018-12-10T23:37:44.412Z,7.20
2018-12-10T23:40:49.125Z,7.03
2018-12-10T23:43:53.817Z,7.18
2018-12-10T23:46:58.517Z,7.29
2018-12-10T23:50:03.307Z,6.93
2018-12-10T23:53:08.090Z,7.22
2018-12-10T23:56:12.777Z,6.96
2018-12-10T23:59:17.540Z,7.01
